createdAt,value
2022-12-08T00:00:00.610Z,81.74
2022-12-08T00:00:10.611Z,81.66
2022-12-08T00:00:20.550Z,81.73
2022-12-08T00:00:30.589Z,81.73
2022-12-08T00:00:40.560Z,81.78
2022-12-08T00:00:50.581Z,81.76
2022-12-08T00:01:00.550Z,81.87
2022-12-08T00:01:10.584Z,81.92
2022-12-08T00:01:22.023Z,81.90
2022-12-08T00:01:30.566Z,82.03
2022-12-08T00:01:42.050Z,82.02
2022-12-08T00:01:50.708Z,82.12
2022-12-08T00:02:00.674Z,82.15
2022-12-08T00:02:10.790Z,82.19
2022-12-08T00:02:20.813Z,82.24
2022-12-08T00:02:30.649Z,82.25
2022-12-08T00:02:40.650Z,82.22
2022-12-08T00:02:50.735Z,82.26
2022-12-08T00:03:00.814Z,82.20
2022-12-08T00:03:10.773Z,82.13
2022-12-08T00:03:20.836Z,82.06
2022-12-08T00:03:30.808Z,82.14
2022-12-08T00:03:40.781Z,82.19
2022-12-08T00:03:50.741Z,82.21
2022-12-08T00:04:00.681Z,82.09
2022-12-08T00:04:10.719Z,81.99
2022-12-08T00:04:20.521Z,81.92
2022-12-08T00:04:30.789Z,81.88
2022-12-08T00:04:40.712Z,81.89
2022-12-08T00:04:50.851Z,81.90
2022-12-08T00:05:01.254Z,81.87
2022-12-08T00:05:10.825Z,81.92
2022-12-08T00:05:20.752Z,81.93
2022-12-08T00:05:30.924Z,81.93
2022-12-08T00:05:40.821Z,82.04
2022-12-08T00:05:50.765Z,82.07
2022-12-08T00:06:00.810Z,82.12
2022-12-08T00:06:10.526Z,82.14
2022-12-08T00:06:20.541Z,82.16
2022-12-08T00:06:30.799Z,82.20
2022-12-08T00:06:41.991Z,82.23
2022-12-08T00:06:50.868Z,82.30
2022-12-08T00:07:00.503Z,82.31
2022-12-08T00:07:10.522Z,82.33
2022-12-08T00:07:20.522Z,82.44
2022-12-08T00:07:30.539Z,82.45
2022-12-08T00:07:41.992Z,82.50
2022-12-08T00:07:50.596Z,82.70
2022-12-08T00:08:00.623Z,82.59
2022-12-08T00:08:10.613Z,82.66
2022-12-08T00:08:20.571Z,82.71
2022-12-08T00:08:30.582Z,82.72
2022-12-08T00:08:41.968Z,82.79
2022-12-08T00:08:51.984Z,82.84
2022-12-08T00:09:00.513Z,82.93
2022-12-08T00:09:10.502Z,82.97
2022-12-08T00:09:20.531Z,82.97
2022-12-08T00:09:37.964Z,83.02
2022-12-08T00:09:41.569Z,83.49
2022-12-08T00:09:53.021Z,83.41
2022-12-08T00:10:10.435Z,83.41
2022-12-08T00:10:46.724Z,83.60
2022-12-08T00:10:47.845Z,83.73
2022-12-08T00:10:48.989Z,83.86
2022-12-08T00:10:49.274Z,83.92
2022-12-08T00:10:55.208Z,83.99
2022-12-08T00:11:04.205Z,83.91
2022-12-08T00:11:14.675Z,83.70
2022-12-08T00:11:25.682Z,83.75
2022-12-08T00:11:35.152Z,83.63
2022-12-08T00:11:44.652Z,83.58
2022-12-08T00:11:54.191Z,83.58
2022-12-08T00:12:04.202Z,83.56
2022-12-08T00:12:14.227Z,83.52
2022-12-08T00:12:24.192Z,83.56
2022-12-08T00:12:34.243Z,83.52
2022-12-08T00:12:44.194Z,83.55
2022-12-08T00:12:55.657Z,83.56
2022-12-08T00:13:04.183Z,83.58
2022-12-08T00:13:14.213Z,83.52
2022-12-08T00:13:25.660Z,83.53
2022-12-08T00:13:35.643Z,83.59
2022-12-08T00:13:44.221Z,83.60
2022-12-08T00:13:55.190Z,83.55
2022-12-08T00:14:04.204Z,83.58
2022-12-08T00:14:15.664Z,83.53
2022-12-08T00:14:24.186Z,83.58
2022-12-08T00:14:34.205Z,83.56
2022-12-08T00:14:45.285Z,83.53
2022-12-08T00:14:54.202Z,83.63
2022-12-08T00:15:04.613Z,83.62
2022-12-08T00:15:15.632Z,83.66
2022-12-08T00:15:24.182Z,83.75
2022-12-08T00:15:35.643Z,83.69
2022-12-08T00:15:45.130Z,83.80
2022-12-08T00:15:54.193Z,83.81
2022-12-08T00:16:04.317Z,83.77
2022-12-08T00:16:14.992Z,83.79
2022-12-08T00:16:24.391Z,83.79
2022-12-08T00:16:34.200Z,83.77
2022-12-08T00:16:44.222Z,83.81
2022-12-08T00:16:54.253Z,83.85
2022-12-08T00:17:04.257Z,83.80
2022-12-08T00:17:14.384Z,83.83
2022-12-08T00:17:24.163Z,83.87
2022-12-08T00:17:34.185Z,83.88
2022-12-08T00:17:44.187Z,83.88
2022-12-08T00:17:54.173Z,83.82
2022-12-08T00:18:04.162Z,83.84
2022-12-08T00:18:14.180Z,83.86
2022-12-08T00:18:25.587Z,83.86
2022-12-08T00:18:34.164Z,83.92
2022-12-08T00:18:44.986Z,83.84
2022-12-08T00:18:54.154Z,83.92
2022-12-08T00:19:04.166Z,83.90
2022-12-08T00:19:14.932Z,83.92
2022-12-08T00:19:24.164Z,83.93
2022-12-08T00:19:35.614Z,83.89
2022-12-08T00:19:44.174Z,84.04
2022-12-08T00:19:54.145Z,83.93
2022-12-08T00:20:05.595Z,83.90
2022-12-08T00:20:14.144Z,84.05
2022-12-08T00:20:25.581Z,83.96
2022-12-08T00:20:34.147Z,83.96
2022-12-08T00:20:44.135Z,83.93
2022-12-08T00:20:54.153Z,83.98
2022-12-08T00:21:04.181Z,83.96
2022-12-08T00:21:14.142Z,83.98
2022-12-08T00:21:25.593Z,84.03
2022-12-08T00:21:34.135Z,84.10
2022-12-08T00:21:44.131Z,84.08
2022-12-08T00:21:55.593Z,84.06
2022-12-08T00:22:05.584Z,84.10
2022-12-08T00:22:15.575Z,84.07
2022-12-08T00:22:24.146Z,84.11
2022-12-08T00:22:34.113Z,84.02
2022-12-08T00:22:44.156Z,84.08
2022-12-08T00:22:54.134Z,84.04
2022-12-08T00:23:04.115Z,83.99
2022-12-08T00:23:14.146Z,83.97
2022-12-08T00:23:24.145Z,84.01
2022-12-08T00:23:34.152Z,84.01
2022-12-08T00:23:44.144Z,83.99
2022-12-08T00:23:54.212Z,84.03
2022-12-08T00:24:04.092Z,84.01
2022-12-08T00:24:14.118Z,84.07
2022-12-08T00:24:25.563Z,84.11
2022-12-08T00:24:35.567Z,84.12
2022-12-08T00:24:44.124Z,84.09
2022-12-08T00:24:54.104Z,84.01
2022-12-08T00:25:04.390Z,84.02
2022-12-08T00:25:14.135Z,84.11
2022-12-08T00:25:24.102Z,84.08
2022-12-08T00:25:34.110Z,84.07
2022-12-08T00:25:45.077Z,84.10
2022-12-08T00:25:54.113Z,84.18
2022-12-08T00:26:04.112Z,84.11
2022-12-08T00:26:14.211Z,84.09
2022-12-08T00:26:24.213Z,84.07
2022-12-08T00:26:34.086Z,84.10
2022-12-08T00:26:44.115Z,84.09
2022-12-08T00:26:54.184Z,84.10
2022-12-08T00:27:04.213Z,84.08
2022-12-08T00:27:14.146Z,84.09
2022-12-08T00:27:24.194Z,84.12
2022-12-08T00:27:34.216Z,84.18
2022-12-08T00:27:44.145Z,84.22
2022-12-08T00:27:54.187Z,84.20
2022-12-08T00:28:04.230Z,84.19
2022-12-08T00:28:14.153Z,84.23
2022-12-08T00:28:24.189Z,84.17
2022-12-08T00:28:34.054Z,84.17
2022-12-08T00:28:44.196Z,84.19
2022-12-08T00:28:55.027Z,84.14
2022-12-08T00:29:04.230Z,84.15
2022-12-08T00:29:17.292Z,84.04
2022-12-08T00:29:25.513Z,84.24
2022-12-08T00:29:34.090Z,84.19
2022-12-08T00:29:44.056Z,84.11
2022-12-08T00:29:54.068Z,84.11
2022-12-08T00:30:04.235Z,84.07
2022-12-08T00:30:14.065Z,84.08
2022-12-08T00:30:24.105Z,84.00
2022-12-08T00:30:34.066Z,83.94
2022-12-08T00:30:44.116Z,83.89
2022-12-08T00:30:55.517Z,83.87
2022-12-08T00:31:04.086Z,83.89
2022-12-08T00:31:14.277Z,83.78
2022-12-08T00:31:25.557Z,83.88
2022-12-08T00:31:34.240Z,83.93
2022-12-08T00:31:45.060Z,83.84
2022-12-08T00:31:54.120Z,83.88
2022-12-08T00:32:04.278Z,83.81
2022-12-08T00:32:15.067Z,83.85
2022-12-08T00:32:24.135Z,83.90
2022-12-08T00:32:35.530Z,83.86
2022-12-08T00:32:44.087Z,84.03
2022-12-08T00:32:55.532Z,83.90
2022-12-08T00:33:04.055Z,83.94
2022-12-08T00:33:14.874Z,83.83
2022-12-08T00:33:24.082Z,83.86
2022-12-08T00:33:34.067Z,83.82
2022-12-08T00:33:44.076Z,83.82
2022-12-08T00:33:54.056Z,83.88
2022-12-08T00:34:04.086Z,83.82
2022-12-08T00:34:15.025Z,83.89
2022-12-08T00:34:25.507Z,83.86
2022-12-08T00:34:34.046Z,83.91
2022-12-08T00:34:44.097Z,83.77
2022-12-08T00:34:55.504Z,83.87
2022-12-08T00:35:05.795Z,83.88
2022-12-08T00:35:14.061Z,83.87
2022-12-08T00:35:25.497Z,83.78
2022-12-08T00:35:38.775Z,83.91
2022-12-08T00:35:46.055Z,84.13
2022-12-08T00:35:55.090Z,84.06
2022-12-08T00:36:05.876Z,83.92
2022-12-08T00:36:15.078Z,83.95
2022-12-08T00:36:25.098Z,83.86
2022-12-08T00:36:35.074Z,83.87
2022-12-08T00:36:45.107Z,83.85
2022-12-08T00:36:55.099Z,83.80
2022-12-08T00:37:05.085Z,83.79
2022-12-08T00:37:16.535Z,83.84
2022-12-08T00:37:25.066Z,83.87
2022-12-08T00:37:36.545Z,83.80
2022-12-08T00:37:45.106Z,83.90
2022-12-08T00:38:00.781Z,83.79
2022-12-08T00:38:07.337Z,84.06
2022-12-08T00:38:15.875Z,83.99
2022-12-08T00:38:26.407Z,83.88
2022-12-08T00:38:35.848Z,83.86
2022-12-08T00:38:47.327Z,83.82
2022-12-08T00:38:55.867Z,83.95
2022-12-08T00:39:07.338Z,83.77
2022-12-08T00:39:15.864Z,83.94
2022-12-08T00:39:26.843Z,83.82
2022-12-08T00:39:35.875Z,83.91
2022-12-08T00:39:45.895Z,83.84
2022-12-08T00:39:57.327Z,83.89
2022-12-08T00:40:06.308Z,83.93
2022-12-08T00:40:16.384Z,83.95
2022-12-08T00:40:25.857Z,83.94
2022-12-08T00:40:35.878Z,83.86
2022-12-08T00:40:45.864Z,83.88
2022-12-08T00:40:55.882Z,83.91
2022-12-08T00:41:06.155Z,83.87
2022-12-08T00:41:15.877Z,83.93
2022-12-08T00:41:27.297Z,83.92
2022-12-08T00:41:35.857Z,84.03
2022-12-08T00:41:47.307Z,84.01
2022-12-08T00:41:57.307Z,84.04
2022-12-08T00:42:05.849Z,84.01
2022-12-08T00:42:15.878Z,83.97
2022-12-08T00:42:27.296Z,83.96
2022-12-08T00:42:36.469Z,84.05
2022-12-08T00:42:45.957Z,83.97
2022-12-08T00:42:55.853Z,83.92
2022-12-08T00:43:07.317Z,83.87
2022-12-08T00:43:16.506Z,83.94
2022-12-08T00:43:26.558Z,83.92
2022-12-08T00:43:35.847Z,83.88
2022-12-08T00:43:45.847Z,83.83
2022-12-08T00:43:55.853Z,83.88
2022-12-08T00:44:07.299Z,83.89
2022-12-08T00:44:15.848Z,83.99
2022-12-08T00:44:25.840Z,83.89
2022-12-08T00:44:35.827Z,83.95
2022-12-08T00:44:45.915Z,83.94
2022-12-08T00:44:55.845Z,83.98
2022-12-08T00:45:05.837Z,83.86
2022-12-08T00:45:15.827Z,83.90
2022-12-08T00:45:25.849Z,83.97
2022-12-08T00:45:35.856Z,83.90
2022-12-08T00:45:45.872Z,83.93
2022-12-08T00:45:55.864Z,83.94
2022-12-08T00:46:05.883Z,83.92
2022-12-08T00:46:15.900Z,83.95
2022-12-08T00:46:25.851Z,84.05
2022-12-08T00:46:37.286Z,84.08
2022-12-08T00:46:45.817Z,84.15
2022-12-08T00:46:57.277Z,84.02
2022-12-08T00:47:05.815Z,84.10
2022-12-08T00:47:17.749Z,83.96
2022-12-08T00:47:25.818Z,84.19
2022-12-08T00:47:37.338Z,84.04
2022-12-08T00:47:45.824Z,84.01
2022-12-08T00:47:55.810Z,83.99
2022-12-08T00:48:05.826Z,83.96
2022-12-08T00:48:15.817Z,83.91
2022-12-08T00:48:25.820Z,83.99
2022-12-08T00:48:35.826Z,83.95
2022-12-08T00:48:47.295Z,83.99
2022-12-08T00:48:57.266Z,84.04
2022-12-08T00:49:05.801Z,84.01
2022-12-08T00:49:17.237Z,84.00
2022-12-08T00:49:25.790Z,84.08
2022-12-08T00:49:35.800Z,84.02
2022-12-08T00:49:45.797Z,84.04
2022-12-08T00:49:55.805Z,83.99
2022-12-08T00:50:06.190Z,84.09
2022-12-08T00:50:15.796Z,83.99
2022-12-08T00:50:25.798Z,83.94
2022-12-08T00:50:37.239Z,83.88
2022-12-08T00:50:45.826Z,83.90
2022-12-08T00:50:55.809Z,83.77
2022-12-08T00:51:05.789Z,83.77
2022-12-08T00:51:17.274Z,83.71
2022-12-08T00:51:25.799Z,83.70
2022-12-08T00:51:37.226Z,83.68
2022-12-08T00:51:45.788Z,83.71
2022-12-08T00:51:55.816Z,83.65
2022-12-08T00:52:05.794Z,83.64
2022-12-08T00:52:15.849Z,83.73
2022-12-08T00:52:25.770Z,83.79
2022-12-08T00:52:35.784Z,83.78
2022-12-08T00:52:45.809Z,83.75
2022-12-08T00:52:55.776Z,83.78
2022-12-08T00:53:06.549Z,83.77
2022-12-08T00:53:17.223Z,83.80
2022-12-08T00:53:25.768Z,83.79
2022-12-08T00:53:35.790Z,83.68
2022-12-08T00:53:45.779Z,83.66
2022-12-08T00:53:56.102Z,83.64
2022-12-08T00:54:06.141Z,83.63
2022-12-08T00:54:15.742Z,83.58
2022-12-08T00:54:27.219Z,83.65
2022-12-08T00:54:36.238Z,83.70
2022-12-08T00:54:45.981Z,83.66
2022-12-08T00:54:55.747Z,83.63
2022-12-08T00:55:06.139Z,83.62
2022-12-08T00:55:16.179Z,83.61
2022-12-08T00:55:26.211Z,83.65
2022-12-08T00:55:36.139Z,83.58
2022-12-08T00:55:46.181Z,83.59
2022-12-08T00:55:56.224Z,83.59
2022-12-08T00:56:06.249Z,83.59
2022-12-08T00:56:16.188Z,83.60
2022-12-08T00:56:25.724Z,83.61
2022-12-08T00:56:36.263Z,83.57
2022-12-08T00:56:45.795Z,83.61
2022-12-08T00:56:56.698Z,83.57
2022-12-08T00:57:06.286Z,83.64
2022-12-08T00:57:16.313Z,83.59
2022-12-08T00:57:25.720Z,83.57
2022-12-08T00:57:35.752Z,83.55
2022-12-08T00:57:46.301Z,83.53
2022-12-08T00:57:55.733Z,83.58
2022-12-08T00:58:07.198Z,83.62
2022-12-08T00:58:17.182Z,83.64
2022-12-08T00:58:26.701Z,83.59
2022-12-08T00:58:35.751Z,83.54
2022-12-08T00:58:45.720Z,83.56
2022-12-08T00:58:55.719Z,83.56
2022-12-08T00:59:06.495Z,83.59
2022-12-08T00:59:15.733Z,83.65
2022-12-08T00:59:27.159Z,83.64
2022-12-08T00:59:37.199Z,83.71
2022-12-08T00:59:45.774Z,83.68
2022-12-08T00:59:55.738Z,83.63
2022-12-08T01:00:06.118Z,83.69
2022-12-08T01:00:15.727Z,83.72
2022-12-08T01:00:25.753Z,83.68
2022-12-08T01:00:35.911Z,83.77
2022-12-08T01:00:45.817Z,83.77
2022-12-08T01:00:55.753Z,83.77
2022-12-08T01:01:05.815Z,83.77
2022-12-08T01:01:16.628Z,83.81
2022-12-08T01:01:25.866Z,83.80
2022-12-08T01:01:35.811Z,83.77
2022-12-08T01:01:47.172Z,83.75
2022-12-08T01:01:55.729Z,83.91
2022-12-08T01:02:05.711Z,83.73
2022-12-08T01:02:17.160Z,83.76
2022-12-08T01:02:25.701Z,83.84
2022-12-08T01:02:35.790Z,83.72
2022-12-08T01:02:47.261Z,83.79
2022-12-08T01:02:55.791Z,83.84
2022-12-08T01:03:07.182Z,83.82
2022-12-08T01:03:15.776Z,83.88
2022-12-08T01:03:25.799Z,83.87
2022-12-08T01:03:37.222Z,83.92
2022-12-08T01:03:45.733Z,83.91
2022-12-08T01:03:55.701Z,83.86
2022-12-08T01:04:07.162Z,83.77
2022-12-08T01:04:15.712Z,83.80
2022-12-08T01:04:25.983Z,83.69
2022-12-08T01:04:35.677Z,83.72
2022-12-08T01:04:45.692Z,83.69
2022-12-08T01:04:55.728Z,83.61
2022-12-08T01:05:05.751Z,83.64
2022-12-08T01:05:15.671Z,83.65
2022-12-08T01:05:26.647Z,83.66
2022-12-08T01:05:35.682Z,83.69
2022-12-08T01:05:45.698Z,83.68
2022-12-08T01:05:55.715Z,83.70
2022-12-08T01:06:05.690Z,83.74
2022-12-08T01:06:15.747Z,83.71
2022-12-08T01:06:25.679Z,83.75
2022-12-08T01:06:35.689Z,83.79
2022-12-08T01:06:47.141Z,83.81
2022-12-08T01:06:57.133Z,83.81
2022-12-08T01:07:06.642Z,83.71
2022-12-08T01:07:15.699Z,83.69
2022-12-08T01:07:25.680Z,83.60
2022-12-08T01:07:35.737Z,83.61
2022-12-08T01:07:47.208Z,83.72
2022-12-08T01:07:55.751Z,83.77
2022-12-08T01:08:07.213Z,83.68
2022-12-08T01:08:15.760Z,83.74
2022-12-08T01:08:25.709Z,83.76
2022-12-08T01:08:35.670Z,83.75
2022-12-08T01:08:47.131Z,83.81
2022-12-08T01:08:57.112Z,83.92
2022-12-08T01:09:06.630Z,83.94
2022-12-08T01:09:15.663Z,83.96
2022-12-08T01:09:27.109Z,84.00
2022-12-08T01:09:35.652Z,84.05
2022-12-08T01:09:45.698Z,83.96
2022-12-08T01:09:57.092Z,84.02
2022-12-08T01:10:05.953Z,84.02
2022-12-08T01:10:15.661Z,83.93
2022-12-08T01:10:27.126Z,83.91
2022-12-08T01:10:37.092Z,84.04
2022-12-08T01:10:45.632Z,84.00
2022-12-08T01:10:57.120Z,83.92
2022-12-08T01:11:07.111Z,83.92
2022-12-08T01:11:15.641Z,83.88
2022-12-08T01:11:25.658Z,83.77
2022-12-08T01:11:37.112Z,83.75
2022-12-08T01:11:45.626Z,83.87
2022-12-08T01:11:55.622Z,83.78
2022-12-08T01:12:07.090Z,83.78
2022-12-08T01:12:15.642Z,83.86
2022-12-08T01:12:25.632Z,83.81
2022-12-08T01:12:35.650Z,83.88
2022-12-08T01:12:45.645Z,83.94
2022-12-08T01:12:55.640Z,83.98
2022-12-08T01:13:05.644Z,84.00
2022-12-08T01:13:15.621Z,83.99
2022-12-08T01:13:25.621Z,84.00
2022-12-08T01:13:35.642Z,83.93
2022-12-08T01:13:47.089Z,83.97
2022-12-08T01:13:55.651Z,84.00
2022-12-08T01:14:07.071Z,84.00
2022-12-08T01:14:15.644Z,84.00
2022-12-08T01:14:26.554Z,83.97
2022-12-08T01:14:37.085Z,84.01
2022-12-08T01:14:45.611Z,84.02
2022-12-08T01:15:00.628Z,84.03
2022-12-08T01:15:05.643Z,84.33
2022-12-08T01:15:15.623Z,84.21
2022-12-08T01:15:25.737Z,84.26
2022-12-08T01:15:37.053Z,84.18
2022-12-08T01:15:46.123Z,84.19
2022-12-08T01:15:56.158Z,84.12
2022-12-08T01:16:05.582Z,84.10
2022-12-08T01:16:15.641Z,84.04
2022-12-08T01:16:26.205Z,84.02
2022-12-08T01:16:35.693Z,84.03
2022-12-08T01:16:45.833Z,83.98
2022-12-08T01:16:56.197Z,84.01
2022-12-08T01:17:06.303Z,84.03
2022-12-08T01:17:15.622Z,84.03
2022-12-08T01:17:26.255Z,83.98
2022-12-08T01:17:36.012Z,83.99
2022-12-08T01:17:46.222Z,84.01
2022-12-08T01:17:55.700Z,84.03
2022-12-08T01:18:06.295Z,83.98
2022-12-08T01:18:15.584Z,84.02
2022-12-08T01:18:25.655Z,83.89
2022-12-08T01:18:36.300Z,83.91
2022-12-08T01:18:46.338Z,83.89
2022-12-08T01:18:55.863Z,83.87
2022-12-08T01:19:05.864Z,83.82
2022-12-08T01:19:15.631Z,83.83
2022-12-08T01:19:26.374Z,83.84
2022-12-08T01:19:36.315Z,83.79
2022-12-08T01:19:46.344Z,83.75
2022-12-08T01:19:55.580Z,83.78
2022-12-08T01:20:06.490Z,83.71
2022-12-08T01:20:16.460Z,83.79
2022-12-08T01:20:26.383Z,83.75
2022-12-08T01:20:36.429Z,83.80
2022-12-08T01:20:45.642Z,83.79
2022-12-08T01:20:55.585Z,83.68
2022-12-08T01:21:06.414Z,83.66
2022-12-08T01:21:16.454Z,83.73
2022-12-08T01:21:26.393Z,83.68
2022-12-08T01:21:36.524Z,83.67
2022-12-08T01:21:45.551Z,83.66
2022-12-08T01:21:56.383Z,83.58
2022-12-08T01:22:06.423Z,83.66
2022-12-08T01:22:15.554Z,83.66
2022-12-08T01:22:25.575Z,83.62
2022-12-08T01:22:35.576Z,83.64
2022-12-08T01:22:45.562Z,83.65
2022-12-08T01:22:55.584Z,83.65
2022-12-08T01:23:05.574Z,83.64
2022-12-08T01:23:15.552Z,83.58
2022-12-08T01:23:25.586Z,83.62
2022-12-08T01:23:35.540Z,83.59
2022-12-08T01:23:45.545Z,83.65
2022-12-08T01:23:57.023Z,83.61
2022-12-08T01:24:05.625Z,83.71
2022-12-08T01:24:15.533Z,83.60
2022-12-08T01:24:25.584Z,83.68
2022-12-08T01:24:35.533Z,83.64
2022-12-08T01:24:45.555Z,83.68
2022-12-08T01:24:55.606Z,83.68
2022-12-08T01:25:05.626Z,83.73
2022-12-08T01:25:15.563Z,83.69
2022-12-08T01:25:25.678Z,83.68
2022-12-08T01:25:35.640Z,83.72
2022-12-08T01:25:45.583Z,83.76
2022-12-08T01:25:55.603Z,83.72
2022-12-08T01:26:05.634Z,83.72
2022-12-08T01:26:15.714Z,83.71
2022-12-08T01:26:25.704Z,83.66
2022-12-08T01:26:35.637Z,83.66
2022-12-08T01:26:46.975Z,83.69
2022-12-08T01:26:56.494Z,83.71
2022-12-08T01:27:05.648Z,83.70
2022-12-08T01:27:15.523Z,83.66
2022-12-08T01:27:25.534Z,83.67
2022-12-08T01:27:35.551Z,83.68
2022-12-08T01:27:45.685Z,83.62
2022-12-08T01:27:55.545Z,83.64
2022-12-08T01:28:05.544Z,83.60
2022-12-08T01:28:15.521Z,83.57
2022-12-08T01:28:25.532Z,83.52
2022-12-08T01:28:36.997Z,83.57
2022-12-08T01:28:46.474Z,83.60
2022-12-08T01:28:55.523Z,83.56
2022-12-08T01:29:05.522Z,83.57
2022-12-08T01:29:16.985Z,83.60
2022-12-08T01:29:26.982Z,83.62
2022-12-08T01:29:36.964Z,83.60
2022-12-08T01:29:45.524Z,83.59
2022-12-08T01:29:55.545Z,83.56
2022-12-08T01:30:07.250Z,83.63
2022-12-08T01:30:15.525Z,83.69
2022-12-08T01:30:26.593Z,83.63
2022-12-08T01:30:35.543Z,83.67
2022-12-08T01:30:47.024Z,83.60
2022-12-08T01:30:57.012Z,83.74
2022-12-08T01:31:05.562Z,83.71
2022-12-08T01:31:17.032Z,83.66
2022-12-08T01:31:26.550Z,83.76
2022-12-08T01:31:35.514Z,83.74
2022-12-08T01:31:45.509Z,83.67
2022-12-08T01:31:56.999Z,83.74
2022-12-08T01:32:06.990Z,83.80
2022-12-08T01:32:16.454Z,83.79
2022-12-08T01:32:25.545Z,83.75
2022-12-08T01:32:35.496Z,83.72
2022-12-08T01:32:45.504Z,83.70
2022-12-08T01:32:56.474Z,83.71
2022-12-08T01:33:05.540Z,83.77
2022-12-08T01:33:15.505Z,83.75
2022-12-08T01:33:25.514Z,83.77
2022-12-08T01:33:36.956Z,83.80
2022-12-08T01:33:46.485Z,83.83
2022-12-08T01:33:55.515Z,83.85
2022-12-08T01:34:05.503Z,83.80
2022-12-08T01:34:16.974Z,83.83
2022-12-08T01:34:25.480Z,83.88
2022-12-08T01:34:35.566Z,83.86
2022-12-08T01:34:45.496Z,83.86
2022-12-08T01:34:55.868Z,83.84
2022-12-08T01:35:05.476Z,83.89
2022-12-08T01:35:15.538Z,83.88
2022-12-08T01:35:25.476Z,83.83
2022-12-08T01:35:35.498Z,83.92
2022-12-08T01:35:45.465Z,83.85
2022-12-08T01:35:55.513Z,83.98
2022-12-08T01:36:05.532Z,83.93
2022-12-08T01:36:16.936Z,83.96
2022-12-08T01:36:26.914Z,83.99
2022-12-08T01:36:35.509Z,83.97
2022-12-08T01:36:46.904Z,83.99
2022-12-08T01:36:55.474Z,84.05
2022-12-08T01:37:05.496Z,84.01
2022-12-08T01:37:15.466Z,84.01
2022-12-08T01:37:26.923Z,84.06
2022-12-08T01:37:35.500Z,84.05
2022-12-08T01:37:46.934Z,84.00
2022-12-08T01:37:55.466Z,83.98
2022-12-08T01:38:05.461Z,83.88
2022-12-08T01:38:15.477Z,83.91
2022-12-08T01:38:25.467Z,83.95
2022-12-08T01:38:35.485Z,83.95
2022-12-08T01:38:45.469Z,83.94
2022-12-08T01:38:55.526Z,83.94
2022-12-08T01:39:05.472Z,83.97
2022-12-08T01:39:16.913Z,84.00
2022-12-08T01:39:25.476Z,84.02
2022-12-08T01:39:35.452Z,83.95
2022-12-08T01:39:45.477Z,83.97
2022-12-08T01:39:56.915Z,84.03
2022-12-08T01:40:06.753Z,84.05
2022-12-08T01:40:15.447Z,84.06
2022-12-08T01:40:25.549Z,84.03
2022-12-08T01:40:35.456Z,83.95
2022-12-08T01:40:46.326Z,84.02
2022-12-08T01:40:55.445Z,84.02
2022-12-08T01:41:06.941Z,83.98
2022-12-08T01:41:15.455Z,84.05
2022-12-08T01:41:25.463Z,84.00
2022-12-08T01:41:35.437Z,84.02
2022-12-08T01:41:46.896Z,84.03
2022-12-08T01:41:55.445Z,84.09
2022-12-08T01:42:05.459Z,84.08
2022-12-08T01:42:15.476Z,84.04
2022-12-08T01:42:25.457Z,84.06
2022-12-08T01:42:35.447Z,84.07
2022-12-08T01:42:45.460Z,84.09
2022-12-08T01:42:56.864Z,84.11
2022-12-08T01:43:05.437Z,84.16
2022-12-08T01:43:15.438Z,84.05
2022-12-08T01:43:25.460Z,84.14
2022-12-08T01:43:36.910Z,84.22
2022-12-08T01:43:45.418Z,84.22
2022-12-08T01:43:56.878Z,84.13
2022-12-08T01:44:05.427Z,84.17
2022-12-08T01:44:15.426Z,84.11
2022-12-08T01:44:26.887Z,84.07
2022-12-08T01:44:35.423Z,84.11
2022-12-08T01:44:45.417Z,84.03
2022-12-08T01:44:56.844Z,84.03
2022-12-08T01:45:06.887Z,84.06
2022-12-08T01:45:15.395Z,84.07
2022-12-08T01:45:25.554Z,84.07
2022-12-08T01:45:35.399Z,84.03
2022-12-08T01:45:46.915Z,84.01
2022-12-08T01:45:56.910Z,84.11
2022-12-08T01:46:05.493Z,84.12
2022-12-08T01:46:16.907Z,84.06
2022-12-08T01:46:25.439Z,84.15
2022-12-08T01:46:35.475Z,84.03
2022-12-08T01:46:46.257Z,84.06
2022-12-08T01:46:55.418Z,84.12
2022-12-08T01:47:05.408Z,84.16
2022-12-08T01:47:16.845Z,84.17
2022-12-08T01:47:26.199Z,84.21
2022-12-08T01:47:35.443Z,84.19
2022-12-08T01:47:46.934Z,84.13
2022-12-08T01:47:55.417Z,84.24
2022-12-08T01:48:05.470Z,84.11
2022-12-08T01:48:16.911Z,84.11
2022-12-08T01:48:26.886Z,84.20
2022-12-08T01:48:35.367Z,84.13
2022-12-08T01:48:46.328Z,84.06
2022-12-08T01:48:55.419Z,84.16
2022-12-08T01:49:05.375Z,84.08
2022-12-08T01:49:16.827Z,84.09
2022-12-08T01:49:25.387Z,84.24
2022-12-08T01:49:35.389Z,84.11
2022-12-08T01:49:46.849Z,84.10
2022-12-08T01:49:55.767Z,84.24
2022-12-08T01:50:06.089Z,84.09
2022-12-08T01:50:15.727Z,84.15
2022-12-08T01:50:25.428Z,84.07
2022-12-08T01:50:36.836Z,84.11
2022-12-08T01:50:45.878Z,84.12
2022-12-08T01:50:55.369Z,84.09
2022-12-08T01:51:06.837Z,84.05
2022-12-08T01:51:15.839Z,84.15
2022-12-08T01:51:25.348Z,84.02
2022-12-08T01:51:35.804Z,84.05
2022-12-08T01:51:45.838Z,84.04
2022-12-08T01:51:55.769Z,84.02
2022-12-08T01:52:05.809Z,84.03
2022-12-08T01:52:15.850Z,83.98
2022-12-08T01:52:25.878Z,84.04
2022-12-08T01:52:36.798Z,84.01
2022-12-08T01:52:45.379Z,84.05
2022-12-08T01:52:55.381Z,84.03
2022-12-08T01:53:05.817Z,84.08
2022-12-08T01:53:16.798Z,84.09
2022-12-08T01:53:25.888Z,84.13
2022-12-08T01:53:35.819Z,84.06
2022-12-08T01:53:45.856Z,84.06
2022-12-08T01:53:55.778Z,84.04
2022-12-08T01:54:05.819Z,84.04
2022-12-08T01:54:15.328Z,84.06
2022-12-08T01:54:25.897Z,84.00
2022-12-08T01:54:35.930Z,84.02
2022-12-08T01:54:45.339Z,84.00
2022-12-08T01:54:55.390Z,83.99
2022-12-08T01:55:05.359Z,83.96
2022-12-08T01:55:16.809Z,83.99
2022-12-08T01:55:25.708Z,83.95
2022-12-08T01:55:36.778Z,83.96
2022-12-08T01:55:45.771Z,84.01
2022-12-08T01:55:55.337Z,83.92
2022-12-08T01:56:05.362Z,83.90
2022-12-08T01:56:16.838Z,83.88
2022-12-08T01:56:25.357Z,83.95
2022-12-08T01:56:35.342Z,83.95
2022-12-08T01:56:45.357Z,83.98
2022-12-08T01:56:56.796Z,83.95
2022-12-08T01:57:06.802Z,84.05
2022-12-08T01:57:15.337Z,84.00
2022-12-08T01:57:25.351Z,83.92
2022-12-08T01:57:35.359Z,83.99
2022-12-08T01:57:45.351Z,84.00
2022-12-08T01:57:56.818Z,84.00
2022-12-08T01:58:06.769Z,84.04
2022-12-08T01:58:15.670Z,84.04
2022-12-08T01:58:25.337Z,83.88
2022-12-08T01:58:35.381Z,83.91
2022-12-08T01:58:45.320Z,83.92
2022-12-08T01:58:55.335Z,83.89
2022-12-08T01:59:05.327Z,83.93
2022-12-08T01:59:16.782Z,83.90
2022-12-08T01:59:25.321Z,84.02
2022-12-08T01:59:36.769Z,83.94
2022-12-08T01:59:46.768Z,84.04
2022-12-08T01:59:55.321Z,84.04
2022-12-08T02:00:07.356Z,83.94
2022-12-08T02:00:15.400Z,84.04
2022-12-08T02:00:26.852Z,83.94
2022-12-08T02:00:35.961Z,84.08
2022-12-08T02:00:46.851Z,83.99
2022-12-08T02:00:55.491Z,84.05
2022-12-08T02:01:05.430Z,84.05
2022-12-08T02:01:15.450Z,84.06
2022-12-08T02:01:25.460Z,84.12
2022-12-08T02:01:35.451Z,84.11
2022-12-08T02:01:45.439Z,84.12
2022-12-08T02:01:55.401Z,84.15
2022-12-08T02:02:05.427Z,84.12
2022-12-08T02:02:15.423Z,84.16
2022-12-08T02:02:25.448Z,84.24
2022-12-08T02:02:37.007Z,84.17
2022-12-08T02:02:46.891Z,84.29
2022-12-08T02:02:56.373Z,84.30
2022-12-08T02:03:06.820Z,84.27
2022-12-08T02:03:16.891Z,84.33
2022-12-08T02:03:26.325Z,84.35
2022-12-08T02:03:35.371Z,84.32
2022-12-08T02:03:45.371Z,84.36
2022-12-08T02:03:55.361Z,84.34
2022-12-08T02:04:05.361Z,84.37
2022-12-08T02:04:15.361Z,84.43
2022-12-08T02:04:25.374Z,84.33
2022-12-08T02:04:36.790Z,84.29
2022-12-08T02:04:46.811Z,84.37
2022-12-08T02:04:55.349Z,84.41
2022-12-08T02:05:05.370Z,84.37
2022-12-08T02:05:15.361Z,84.51
2022-12-08T02:05:26.800Z,84.50
2022-12-08T02:05:36.797Z,84.58
2022-12-08T02:05:45.351Z,84.61
2022-12-08T02:05:55.350Z,84.53
2022-12-08T02:06:06.800Z,84.62
2022-12-08T02:06:15.372Z,84.78
2022-12-08T02:06:26.812Z,84.73
2022-12-08T02:06:35.331Z,84.89
2022-12-08T02:06:46.804Z,84.88
2022-12-08T02:06:56.301Z,85.01
2022-12-08T02:07:08.123Z,85.00
2022-12-08T02:07:15.331Z,85.18
2022-12-08T02:07:25.361Z,85.17
2022-12-08T02:07:35.450Z,85.16
2022-12-08T02:07:45.404Z,85.11
2022-12-08T02:07:56.836Z,85.13
2022-12-08T02:08:05.399Z,85.13
2022-12-08T02:08:15.452Z,85.08
2022-12-08T02:08:25.372Z,85.10
2022-12-08T02:08:36.211Z,85.13
2022-12-08T02:08:46.794Z,85.29